createdAt,value
2023-04-27T00:01:41.609Z,19.2
2023-04-27T00:03:41.917Z,19.4
2023-04-27T00:05:41.605Z,19.5
2023-04-27T00:07:41.638Z,19.6
2023-04-27T00:09:41.596Z,19.5
2023-04-27T00:11:41.951Z,19.6
2023-04-27T00:13:41.917Z,19.8
2023-04-27T00:15:41.566Z,19.6
2023-04-27T00:17:43.520Z,19.6
2023-04-27T00:19:41.702Z,19.6
2023-04-27T00:21:41.625Z,19.9
2023-04-27T00:23:41.575Z,19.9
2023-04-27T00:25:41.702Z,20.1
2023-04-27T00:27:41.726Z,20.0
2023-04-27T00:29:41.659Z,21.5
2023-04-27T00:31:41.746Z,22.3
2023-04-27T00:33:41.614Z,22.0
2023-04-27T00:35:41.598Z,21.3
2023-04-27T00:37:41.681Z,20.9
2023-04-27T00:39:41.718Z,20.7
2023-04-27T00:41:41.641Z,21.0
2023-04-27T00:43:41.730Z,21.8
2023-04-27T00:45:41.635Z,21.6
2023-04-27T00:47:41.674Z,21.0
2023-04-27T00:49:41.639Z,20.5
2023-04-27T00:51:41.633Z,20.3
2023-04-27T00:53:44.772Z,20.4
2023-04-27T00:55:41.820Z,20.1
2023-04-27T00:57:41.842Z,20.7
2023-04-27T00:59:41.817Z,20.7
2023-04-27T01:01:41.873Z,20.2
2023-04-27T01:03:41.802Z,20.5
2023-04-27T01:09:41.632Z,20.5
2023-04-27T01:13:41.877Z,20.8
2023-04-27T01:17:41.782Z,21.1
2023-04-27T01:19:41.599Z,21.0
2023-04-27T01:23:58.185Z,20.9
2023-04-27T01:25:55.184Z,20.9
2023-04-27T01:27:55.329Z,16.0
2023-04-27T01:29:55.193Z,21.0
2023-04-27T01:31:55.239Z,19.7
2023-04-27T01:33:55.249Z,21.1
2023-04-27T01:35:55.423Z,22.0
2023-04-27T01:37:55.193Z,21.9
2023-04-27T01:39:59.327Z,22.4
2023-04-27T01:41:57.768Z,21.6
2023-04-27T01:43:55.445Z,21.6
2023-04-27T01:45:55.330Z,21.4
2023-04-27T01:47:55.288Z,21.0
2023-04-27T01:49:55.229Z,20.3
2023-04-27T01:51:55.479Z,20.3
2023-04-27T01:53:55.307Z,20.8
2023-04-27T01:55:55.334Z,21.1
2023-04-27T01:57:55.319Z,20.9
2023-04-27T01:59:55.269Z,20.8
2023-04-27T02:01:55.362Z,20.8
2023-04-27T02:03:55.427Z,20.9
2023-04-27T02:05:55.282Z,20.9
2023-04-27T02:07:55.321Z,20.9
2023-04-27T02:09:55.254Z,20.8
2023-04-27T02:11:55.269Z,20.7
2023-04-27T02:13:55.383Z,20.7
2023-04-27T02:15:55.330Z,20.8
2023-04-27T02:17:55.307Z,21.1
2023-04-27T02:19:55.251Z,21.1
2023-04-27T02:21:55.279Z,21.0
2023-04-27T02:23:55.423Z,20.9
2023-04-27T02:25:58.307Z,21.0
2023-04-27T02:27:55.294Z,21.0
2023-04-27T02:29:55.326Z,20.8
2023-04-27T02:31:55.316Z,20.8
2023-04-27T02:33:55.510Z,20.6
2023-04-27T02:35:55.254Z,20.4
2023-04-27T02:37:55.255Z,20.4
2023-04-27T02:39:55.286Z,20.0
2023-04-27T02:41:55.605Z,20.3
2023-04-27T02:43:55.305Z,20.3
2023-04-27T02:45:55.244Z,20.5
2023-04-27T02:47:55.344Z,20.5
2023-04-27T02:49:55.223Z,20.6
2023-04-27T02:51:55.293Z,20.6
2023-04-27T02:53:55.310Z,20.5
2023-04-27T02:55:55.302Z,20.1
2023-04-27T02:57:55.316Z,20.1
2023-04-27T02:59:55.312Z,20.3
2023-04-27T03:01:55.269Z,20.5
2023-04-27T03:03:55.524Z,20.4
2023-04-27T03:05:55.403Z,20.5
2023-04-27T03:07:55.312Z,20.7
2023-04-27T03:09:55.274Z,20.7
2023-04-27T03:11:55.311Z,20.8
2023-04-27T03:13:55.400Z,20.8
2023-04-27T03:15:55.295Z,20.8
2023-04-27T03:17:55.505Z,20.3
2023-04-27T03:19:55.236Z,20.2
2023-04-27T03:21:55.254Z,20.2
2023-04-27T03:23:55.308Z,20.4
2023-04-27T03:25:55.284Z,20.3
2023-04-27T03:27:58.372Z,20.4
2023-04-27T03:29:55.412Z,20.6
2023-04-27T03:32:55.337Z,20.8
2023-04-27T03:34:56.394Z,20.6
2023-04-27T03:36:55.270Z,20.8
2023-04-27T03:38:55.290Z,21.1
2023-04-27T03:40:55.288Z,21.4
2023-04-27T03:42:56.042Z,21.3
2023-04-27T03:44:55.341Z,21.2
2023-04-27T03:46:55.303Z,21.0
2023-04-27T03:48:55.261Z,21.0
2023-04-27T03:50:55.452Z,21.0
2023-04-27T03:52:55.255Z,21.1
2023-04-27T03:54:58.086Z,21.2
2023-04-27T03:56:57.474Z,21.4
2023-04-27T03:59:00.155Z,21.3
2023-04-27T04:00:56.157Z,21.4
2023-04-27T04:02:56.052Z,21.0
2023-04-27T04:04:56.982Z,21.2
2023-04-27T04:06:55.327Z,21.1
2023-04-27T04:08:55.296Z,21.0
2023-04-27T04:10:55.370Z,21.0
2023-04-27T04:12:55.321Z,21.0
2023-04-27T04:14:55.277Z,21.0
2023-04-27T04:16:55.329Z,21.1
2023-04-27T04:18:55.346Z,21.2
2023-04-27T04:20:55.371Z,21.3
2023-04-27T04:22:55.504Z,21.3
2023-04-27T04:24:55.503Z,21.1
2023-04-27T04:26:55.757Z,21.2
2023-04-27T04:28:55.361Z,21.3
2023-04-27T04:30:58.191Z,21.2
2023-04-27T04:32:55.563Z,21.2
2023-04-27T04:34:55.339Z,21.3
2023-04-27T04:36:55.921Z,20.9
2023-04-27T04:38:55.445Z,20.9
2023-04-27T04:40:55.294Z,20.8
2023-04-27T04:42:55.667Z,20.5
2023-04-27T04:44:55.408Z,20.7
2023-04-27T04:46:55.603Z,21.1
2023-04-27T04:48:57.219Z,21.3
2023-04-27T04:50:55.376Z,21.4
2023-04-27T04:52:55.423Z,21.5
2023-04-27T04:54:55.523Z,21.5
2023-04-27T04:56:55.390Z,21.4
2023-04-27T04:58:55.494Z,21.2
2023-04-27T05:01:00.291Z,21.2
2023-04-27T05:02:55.557Z,21.4
2023-04-27T05:04:55.423Z,21.5
2023-04-27T05:06:55.347Z,21.3
2023-04-27T05:08:55.399Z,21.6
2023-04-27T05:10:55.326Z,21.5
2023-04-27T05:12:55.456Z,21.4
2023-04-27T05:14:55.396Z,21.3
2023-04-27T05:16:55.409Z,21.5
2023-04-27T05:18:55.428Z,21.5
2023-04-27T05:20:55.532Z,21.3
2023-04-27T05:22:55.569Z,21.2
2023-04-27T05:24:55.489Z,21.3
2023-04-27T05:26:55.393Z,21.1
2023-04-27T05:28:55.720Z,21.0
2023-04-27T05:30:55.457Z,21.0
2023-04-27T05:32:55.451Z,21.0
2023-04-27T05:34:55.669Z,21.0
2023-04-27T05:36:55.560Z,21.3
2023-04-27T05:38:58.215Z,21.0
2023-04-27T05:40:55.611Z,21.1
2023-04-27T05:42:55.561Z,21.3
2023-04-27T05:44:55.468Z,21.0
2023-04-27T05:46:55.388Z,20.7
2023-04-27T05:48:55.387Z,20.5
2023-04-27T05:50:55.568Z,20.2
2023-04-27T05:52:55.365Z,19.9
2023-04-27T05:54:58.249Z,19.9
2023-04-27T05:56:55.530Z,19.6
2023-04-27T05:58:59.948Z,19.5
2023-04-27T06:00:55.380Z,19.5
2023-04-27T06:02:58.553Z,19.3
2023-04-27T06:04:55.463Z,19.1
2023-04-27T06:06:55.413Z,19.2
2023-04-27T06:08:55.449Z,19.3
2023-04-27T06:10:55.407Z,19.3
2023-04-27T06:12:55.389Z,19.5
2023-04-27T06:14:55.388Z,19.2
2023-04-27T06:16:55.482Z,19.3
2023-04-27T06:18:55.434Z,19.1
2023-04-27T06:20:55.487Z,19.5
2023-04-27T06:22:55.391Z,19.6
2023-04-27T06:24:55.371Z,19.6
2023-04-27T06:26:55.364Z,19.7
2023-04-27T06:28:55.580Z,19.9
2023-04-27T06:30:55.420Z,19.8
2023-04-27T06:32:55.422Z,19.7
2023-04-27T06:34:55.517Z,19.6
2023-04-27T06:36:55.493Z,19.7
2023-04-27T06:38:55.348Z,19.8
2023-04-27T06:40:55.412Z,19.6
2023-04-27T06:42:55.489Z,19.5
2023-04-27T06:44:55.428Z,19.8
2023-04-27T06:46:55.399Z,19.5
2023-04-27T06:48:56.074Z,19.5
2023-04-27T06:50:56.903Z,19.8
2023-04-27T06:52:55.389Z,19.7
2023-04-27T06:54:55.462Z,19.8
2023-04-27T06:56:55.476Z,19.9
2023-04-27T06:59:00.275Z,20.0
2023-04-27T07:00:55.760Z,20.0
2023-04-27T07:02:55.691Z,20.2
2023-04-27T07:05:00.671Z,20.1
2023-04-27T07:06:55.423Z,20.0
2023-04-27T07:08:56.811Z,19.9
2023-04-27T07:10:55.805Z,20.1
2023-04-27T07:12:55.416Z,20.0
2023-04-27T07:14:55.582Z,20.3
2023-04-27T07:16:55.664Z,20.0
2023-04-27T07:18:55.505Z,20.1
2023-04-27T07:21:55.461Z,19.9
2023-04-27T07:23:56.196Z,19.8
2023-04-27T07:25:55.436Z,19.6
2023-04-27T07:27:55.401Z,19.6
2023-04-27T07:29:55.423Z,19.5
2023-04-27T07:31:55.669Z,20.0
2023-04-27T07:33:55.526Z,19.8
2023-04-27T07:35:58.579Z,19.9
2023-04-27T07:37:55.734Z,19.8
2023-04-27T07:39:55.612Z,19.9
2023-04-27T07:43:55.533Z,20.1
2023-04-27T07:45:07.497Z,19.9
2023-04-27T07:47:07.670Z,20.1
2023-04-27T07:49:07.541Z,20.6
2023-04-27T07:51:07.511Z,20.3
2023-04-27T07:53:07.506Z,20.2
2023-04-27T07:55:07.529Z,20.2
2023-04-27T07:57:07.551Z,20.4
2023-04-27T07:59:07.614Z,20.5
2023-04-27T08:01:07.544Z,20.3
2023-04-27T08:03:07.985Z,20.3
2023-04-27T08:05:07.925Z,20.5
2023-04-27T08:08:07.795Z,20.4
2023-04-27T08:10:07.511Z,20.0
2023-04-27T08:12:07.484Z,20.1
2023-04-27T08:14:07.568Z,20.0
2023-04-27T08:15:10.416Z,20.0
2023-04-27T08:18:07.704Z,20.4
2023-04-27T08:20:07.644Z,20.4
2023-04-27T08:22:07.544Z,20.6
2023-04-27T08:24:07.646Z,20.7
2023-04-27T08:26:07.524Z,20.6
2023-04-27T08:28:07.503Z,20.6
2023-04-27T08:30:07.732Z,20.9
2023-04-27T08:32:07.491Z,20.7
2023-04-27T08:34:07.636Z,21.0
2023-04-27T08:36:07.485Z,20.9
2023-04-27T08:38:07.503Z,20.8
2023-04-27T08:40:07.563Z,20.8
2023-04-27T08:42:07.712Z,20.6
2023-04-27T08:44:07.695Z,20.5
2023-04-27T08:46:07.962Z,20.7
2023-04-27T08:48:07.739Z,20.3
2023-04-27T08:50:10.308Z,20.4
2023-04-27T08:52:07.528Z,20.4
2023-04-27T08:54:07.744Z,20.5
2023-04-27T08:56:07.555Z,20.5
2023-04-27T08:58:07.512Z,20.5
2023-04-27T09:00:07.694Z,20.2
2023-04-27T09:02:07.686Z,20.4
2023-04-27T09:04:07.889Z,20.3
2023-04-27T09:06:09.998Z,20.2
2023-04-27T09:08:10.802Z,20.3
2023-04-27T09:10:07.621Z,20.2
2023-04-27T09:12:07.746Z,20.3
2023-04-27T09:14:07.581Z,20.4
2023-04-27T09:16:07.686Z,20.3
2023-04-27T09:18:07.581Z,19.8
2023-04-27T09:20:07.775Z,19.6
2023-04-27T09:22:09.879Z,19.6
2023-04-27T09:24:07.562Z,19.8
2023-04-27T09:26:07.545Z,19.6
2023-04-27T09:28:07.588Z,19.4
2023-04-27T09:30:07.581Z,19.4
2023-04-27T09:32:07.866Z,19.2
2023-04-27T09:34:07.630Z,19.0
2023-04-27T09:36:07.756Z,18.9
2023-04-27T09:38:08.665Z,19.0
2023-04-27T09:40:07.629Z,18.7
2023-04-27T09:42:07.617Z,18.8
2023-04-27T09:44:09.055Z,18.8
2023-04-27T09:46:11.731Z,18.8
2023-04-27T09:48:07.571Z,19.0
2023-04-27T09:50:13.415Z,19.1
2023-04-27T09:52:10.093Z,19.3
2023-04-27T09:54:07.850Z,19.3
2023-04-27T09:56:07.654Z,19.5
2023-04-27T09:58:08.016Z,19.5
2023-04-27T10:00:07.655Z,19.5
2023-04-27T10:02:23.536Z,19.4
2023-04-27T10:04:07.789Z,19.2
2023-04-27T10:06:07.657Z,18.9
2023-04-27T10:08:07.769Z,18.9
2023-04-27T10:10:10.727Z,19.0
2023-04-27T10:12:07.564Z,18.9
2023-04-27T10:14:07.667Z,19.0
2023-04-27T10:16:07.711Z,19.1
2023-04-27T10:18:08.030Z,19.4
2023-04-27T10:20:07.787Z,19.4
2023-04-27T10:22:07.717Z,19.3
2023-04-27T10:24:07.685Z,19.1
2023-04-27T10:26:07.793Z,19.3
2023-04-27T10:28:07.690Z,19.5
2023-04-27T10:30:07.741Z,19.4
2023-04-27T10:32:07.631Z,19.5
2023-04-27T10:34:07.738Z,19.5
2023-04-27T10:36:10.849Z,19.7
2023-04-27T10:38:07.596Z,19.6
2023-04-27T10:40:07.675Z,19.5
2023-04-27T10:42:07.608Z,19.5
2023-04-27T10:44:07.604Z,19.6
2023-04-27T10:46:07.827Z,19.9
2023-04-27T10:48:07.782Z,19.9
2023-04-27T10:50:07.720Z,19.8
2023-04-27T10:52:07.751Z,19.7
2023-04-27T10:54:07.740Z,19.8
2023-04-27T10:56:07.649Z,19.8
2023-04-27T10:58:07.678Z,19.7
2023-04-27T11:00:07.647Z,20.1
2023-04-27T11:02:07.781Z,20.1
2023-04-27T11:04:07.669Z,20.3
2023-04-27T11:06:07.647Z,20.3
2023-04-27T11:08:07.751Z,20.6
2023-04-27T11:10:07.936Z,20.6
2023-04-27T11:12:10.736Z,20.6
2023-04-27T11:14:07.943Z,20.4
2023-04-27T11:16:07.766Z,20.1
2023-04-27T11:18:07.720Z,20.0
2023-04-27T11:20:07.696Z,20.0
2023-04-27T11:22:07.704Z,20.1
2023-04-27T11:24:07.989Z,20.2
2023-04-27T11:26:07.704Z,20.4
2023-04-27T11:28:07.714Z,20.3
2023-04-27T11:30:07.789Z,20.2
2023-04-27T11:32:07.702Z,20.0
2023-04-27T11:34:07.981Z,20.1
2023-04-27T11:36:07.703Z,20.0
2023-04-27T11:38:07.737Z,20.0
2023-04-27T11:40:07.813Z,20.3
2023-04-27T11:42:08.042Z,20.1
2023-04-27T11:44:07.775Z,20.0
2023-04-27T11:46:08.265Z,19.9
2023-04-27T11:48:12.382Z,19.7
2023-04-27T11:50:07.788Z,19.5
2023-04-27T11:52:08.070Z,19.7
2023-04-27T11:54:07.773Z,19.8
2023-04-27T11:56:07.801Z,19.7
2023-04-27T11:58:07.673Z,19.4
2023-04-27T12:00:07.880Z,19.3
2023-04-27T12:02:07.874Z,19.5
2023-04-27T12:04:08.018Z,19.5
2023-04-27T12:06:27.807Z,19.4
2023-04-27T12:09:07.933Z,19.4
2023-04-27T12:11:07.837Z,19.2
2023-04-27T12:13:07.774Z,19.1
2023-04-27T12:14:10.928Z,19.3
2023-04-27T12:17:07.838Z,19.6
2023-04-27T12:19:07.691Z,19.8
2023-04-27T12:21:08.431Z,19.8
2023-04-27T12:23:07.901Z,19.8
2023-04-27T12:25:07.755Z,19.6
2023-04-27T12:27:07.948Z,19.7
2023-04-27T12:29:07.819Z,19.6
2023-04-27T12:31:07.770Z,20.0
2023-04-27T12:33:07.836Z,19.9
2023-04-27T12:35:07.823Z,19.8
2023-04-27T12:37:07.869Z,19.7
2023-04-27T12:39:07.831Z,19.6
2023-04-27T12:41:07.848Z,19.7
2023-04-27T12:43:07.887Z,19.9
2023-04-27T12:45:11.982Z,19.8
2023-04-27T12:47:07.863Z,19.8
2023-04-27T12:49:07.788Z,19.7
2023-04-27T12:51:07.698Z,19.5
2023-04-27T12:53:07.887Z,19.2
2023-04-27T12:55:11.041Z,19.2
2023-04-27T12:57:07.892Z,19.2
2023-04-27T12:59:07.773Z,19.5
2023-04-27T13:01:07.928Z,19.2
2023-04-27T13:03:07.808Z,18.9
2023-04-27T13:05:07.903Z,19.0
2023-04-27T13:07:07.975Z,19.1
2023-04-27T13:09:07.760Z,19.0
2023-04-27T13:11:07.811Z,19.1
2023-04-27T13:13:07.769Z,19.1
2023-04-27T13:15:18.046Z,19.0
2023-04-27T13:17:07.962Z,18.8
2023-04-27T13:19:07.783Z,18.7
2023-04-27T13:21:07.832Z,19.0
2023-04-27T13:23:07.885Z,18.8
2023-04-27T13:25:13.776Z,18.8
2023-04-27T13:27:07.894Z,18.6
2023-04-27T13:29:07.816Z,19.1
2023-04-27T13:31:07.842Z,18.9
2023-04-27T13:33:21.660Z,18.7
2023-04-27T13:37:07.817Z,18.9
2023-04-27T13:39:08.049Z,19.1
2023-04-27T13:43:18.550Z,19.1
2023-04-27T13:45:21.532Z,19.3
2023-04-27T13:47:18.489Z,19.3
2023-04-27T13:49:18.716Z,19.4
2023-04-27T13:51:18.473Z,19.5
2023-04-27T13:53:18.855Z,19.6
2023-04-27T13:55:18.502Z,19.6
2023-04-27T13:57:18.506Z,19.8
2023-04-27T13:59:18.491Z,19.7
2023-04-27T14:01:18.443Z,19.9
2023-04-27T14:03:18.524Z,20.0
2023-04-27T14:05:18.529Z,20.1
2023-04-27T14:07:18.583Z,20.2
2023-04-27T14:09:18.567Z,20.1
2023-04-27T14:11:18.529Z,20.3
2023-04-27T14:13:18.478Z,20.3
2023-04-27T14:15:21.721Z,20.4
2023-04-27T14:17:18.448Z,20.6
2023-04-27T14:19:18.403Z,20.6
2023-04-27T14:21:18.430Z,20.4
2023-04-27T14:23:18.509Z,20.4
2023-04-27T14:25:18.536Z,20.4
2023-04-27T14:27:18.429Z,20.7
2023-04-27T14:29:18.677Z,20.8
2023-04-27T14:31:18.460Z,20.9
2023-04-27T14:33:20.969Z,21.1
2023-04-27T14:35:18.636Z,21.4
2023-04-27T14:37:18.556Z,21.3
2023-04-27T14:39:18.707Z,21.0
2023-04-27T14:41:18.492Z,21.1
2023-04-27T14:43:18.621Z,21.0
2023-04-27T14:45:18.499Z,20.8
2023-04-27T14:47:21.985Z,20.7
2023-04-27T14:49:18.495Z,20.8
2023-04-27T14:51:18.502Z,20.9
2023-04-27T14:53:18.493Z,20.9
2023-04-27T14:55:21.350Z,20.8
2023-04-27T14:57:18.492Z,20.8
2023-04-27T14:59:18.504Z,20.9
2023-04-27T15:01:18.583Z,20.7
2023-04-27T15:03:18.800Z,21.0
2023-04-27T15:05:18.841Z,20.6
2023-04-27T15:07:21.525Z,20.2
2023-04-27T15:09:20.657Z,20.2
2023-04-27T15:11:18.700Z,20.4
2023-04-27T15:13:21.265Z,20.1
2023-04-27T15:15:20.130Z,20.1
2023-04-27T15:17:19.136Z,20.2
2023-04-27T15:19:18.510Z,20.3
2023-04-27T15:21:18.466Z,20.1
2023-04-27T15:23:18.577Z,20.4
2023-04-27T15:25:21.341Z,20.4
2023-04-27T15:27:18.745Z,20.0
2023-04-27T15:29:18.900Z,19.7
2023-04-27T15:31:19.051Z,19.6
2023-04-27T15:35:24.498Z,19.2
2023-04-27T15:37:18.478Z,19.4
2023-04-27T15:39:18.725Z,19.4
2023-04-27T15:41:18.632Z,19.4
2023-04-27T15:43:18.599Z,19.3
2023-04-27T15:45:18.714Z,19.4
2023-04-27T15:47:18.499Z,19.5
2023-04-27T15:49:18.673Z,19.5
2023-04-27T15:51:23.459Z,19.5
2023-04-27T15:53:18.502Z,19.4
2023-04-27T15:55:21.282Z,19.2
2023-04-27T15:57:18.617Z,19.1
2023-04-27T15:59:18.568Z,18.9
2023-04-27T16:01:21.106Z,18.8
2023-04-27T16:03:18.898Z,18.4
2023-04-27T16:05:18.877Z,18.5
2023-04-27T16:07:18.813Z,18.7
2023-04-27T16:09:18.610Z,18.6
2023-04-27T16:11:18.640Z,18.2
2023-04-27T16:13:18.533Z,18.7
2023-04-27T16:15:21.668Z,18.4
2023-04-27T16:17:18.637Z,18.2
2023-04-27T16:19:18.591Z,18.3
2023-04-27T16:21:19.004Z,18.7
2023-04-27T16:23:18.478Z,18.6
2023-04-27T16:25:18.516Z,18.3
2023-04-27T16:27:18.652Z,18.5
2023-04-27T16:29:19.776Z,18.5
2023-04-27T16:31:18.766Z,18.6
2023-04-27T16:33:18.620Z,18.9
2023-04-27T16:35:18.741Z,18.9
2023-04-27T16:37:18.728Z,18.7
2023-04-27T16:39:18.561Z,18.8
2023-04-27T16:41:18.826Z,18.7
2023-04-27T16:43:19.280Z,18.8
2023-04-27T16:46:19.109Z,18.7
2023-04-27T16:48:18.665Z,18.7
2023-04-27T16:50:18.833Z,18.5
2023-04-27T16:52:18.538Z,18.5
2023-04-27T16:53:23.732Z,18.8
2023-04-27T16:56:18.725Z,18.9
2023-04-27T16:58:18.698Z,18.9
2023-04-27T17:00:18.611Z,19.2
2023-04-27T17:02:24.378Z,19.6
2023-04-27T17:04:18.786Z,19.8
2023-04-27T17:06:18.836Z,19.8
2023-04-27T17:08:18.536Z,19.7
2023-04-27T17:10:18.969Z,19.8
2023-04-27T17:12:18.812Z,19.9
2023-04-27T17:14:18.572Z,19.7
2023-04-27T17:16:18.688Z,19.9
2023-04-27T17:18:18.697Z,19.5
2023-04-27T17:20:18.555Z,19.2
2023-04-27T17:22:18.663Z,19.3
2023-04-27T17:24:18.932Z,19.5
2023-04-27T17:26:22.737Z,19.5
2023-04-27T17:28:18.610Z,19.5
2023-04-27T17:30:18.703Z,19.5
2023-04-27T17:32:18.637Z,19.4
2023-04-27T17:34:18.590Z,19.3
2023-04-27T17:36:18.694Z,19.1
2023-04-27T17:38:18.638Z,19.0
2023-04-27T17:40:18.754Z,19.2
2023-04-27T17:42:18.597Z,18.9
2023-04-27T17:44:18.751Z,19.0
2023-04-27T17:46:18.714Z,19.0
2023-04-27T17:48:18.696Z,19.1
2023-04-27T17:50:18.655Z,19.2
2023-04-27T17:52:18.722Z,19.0
2023-04-27T17:54:18.828Z,19.1
2023-04-27T17:56:18.653Z,19.4
2023-04-27T17:58:21.836Z,19.6
2023-04-27T18:00:18.663Z,19.7
2023-04-27T18:02:22.295Z,19.4
2023-04-27T18:04:18.916Z,19.5
2023-04-27T18:06:18.827Z,19.7
2023-04-27T18:08:18.659Z,19.9
2023-04-27T18:10:20.922Z,20.1
2023-04-27T18:12:18.888Z,20.2
2023-04-27T18:14:18.590Z,20.1
2023-04-27T18:16:18.750Z,20.2
2023-04-27T18:18:18.658Z,20.5
2023-04-27T18:20:18.639Z,20.3
2023-04-27T18:22:18.765Z,20.4
2023-04-27T18:24:18.736Z,20.4
2023-04-27T18:26:18.673Z,20.8
2023-04-27T18:28:18.785Z,20.6
2023-04-27T18:30:18.820Z,20.6
2023-04-27T18:32:18.827Z,20.6
2023-04-27T18:34:18.911Z,20.4
2023-04-27T18:36:18.917Z,20.6
2023-04-27T18:38:18.833Z,20.6
2023-04-27T18:40:18.591Z,20.4
2023-04-27T18:42:18.654Z,20.7
2023-04-27T18:44:19.121Z,20.5
2023-04-27T18:46:18.812Z,20.7
2023-04-27T18:48:18.807Z,20.6
2023-04-27T18:50:21.533Z,20.4
2023-04-27T18:52:18.626Z,20.5
2023-04-27T18:54:18.664Z,20.3
2023-04-27T18:56:18.808Z,20.1
2023-04-27T18:58:18.628Z,19.9
2023-04-27T19:00:18.656Z,19.7
2023-04-27T19:02:21.790Z,19.8
2023-04-27T19:04:18.867Z,19.6
2023-04-27T19:06:18.983Z,19.4
2023-04-27T19:08:18.793Z,19.5
2023-04-27T19:10:18.666Z,19.3
2023-04-27T19:12:18.727Z,19.2
2023-04-27T19:14:18.720Z,19.3
2023-04-27T19:16:19.935Z,19.2
2023-04-27T19:18:18.707Z,19.1
2023-04-27T19:20:18.653Z,19.2
2023-04-27T19:22:18.717Z,18.9
2023-04-27T19:24:18.731Z,18.6
2023-04-27T19:28:18.682Z,18.4
2023-04-27T19:30:20.448Z,18.2
2023-04-27T19:32:38.675Z,18.2
2023-04-27T19:34:35.246Z,18.2
2023-04-27T19:36:35.277Z,18.2
2023-04-27T19:38:35.158Z,18.2
2023-04-27T19:40:35.287Z,18.3
2023-04-27T19:42:35.179Z,18.2
2023-04-27T19:44:35.193Z,18.4
2023-04-27T19:46:35.209Z,18.3
2023-04-27T19:48:35.154Z,18.3
2023-04-27T19:50:38.037Z,18.6
2023-04-27T19:52:35.517Z,18.5
2023-04-27T19:54:35.190Z,18.8
2023-04-27T19:56:35.172Z,18.9
2023-04-27T19:58:35.177Z,19.0
2023-04-27T20:00:35.135Z,19.0
2023-04-27T20:02:35.438Z,18.9
2023-04-27T20:04:35.421Z,19.0
2023-04-27T20:06:35.183Z,18.9
2023-04-27T20:08:35.283Z,18.7
2023-04-27T20:10:35.166Z,18.8
2023-04-27T20:14:35.202Z,18.8
2023-04-27T20:16:35.256Z,18.9
2023-04-27T20:18:37.890Z,19.1
2023-04-27T20:20:35.227Z,19.1
2023-04-27T20:22:35.166Z,19.4
2023-04-27T20:24:35.314Z,19.5
2023-04-27T20:26:35.239Z,19.5
2023-04-27T20:28:35.228Z,19.6
2023-04-27T20:30:35.284Z,19.5
2023-04-27T20:32:35.293Z,19.6
2023-04-27T20:34:38.258Z,19.8
2023-04-27T20:36:35.195Z,19.7
2023-04-27T20:38:35.444Z,19.6
2023-04-27T20:40:35.237Z,19.6
2023-04-27T20:42:35.352Z,19.5
2023-04-27T20:44:35.278Z,19.4
2023-04-27T20:46:35.324Z,19.5
2023-04-27T20:48:35.210Z,19.5
2023-04-27T20:50:35.229Z,19.4
2023-04-27T20:52:39.948Z,19.6
2023-04-27T20:54:35.341Z,19.3
2023-04-27T20:56:35.443Z,19.2
2023-04-27T20:58:35.187Z,19.1
2023-04-27T21:00:35.191Z,19.1
2023-04-27T21:02:35.212Z,18.9
2023-04-27T21:04:35.474Z,18.7
2023-04-27T21:06:35.460Z,18.7
2023-04-27T21:08:35.355Z,18.8
2023-04-27T21:10:35.374Z,18.3
2023-04-27T21:12:35.380Z,18.4
2023-04-27T21:14:35.352Z,18.4
2023-04-27T21:16:36.501Z,18.6
2023-04-27T21:18:35.485Z,18.4
2023-04-27T21:20:35.316Z,18.7
2023-04-27T21:22:35.250Z,18.4
2023-04-27T21:24:35.229Z,18.4
2023-04-27T21:26:35.286Z,18.3
2023-04-27T21:28:35.228Z,18.3
2023-04-27T21:30:35.296Z,18.3
2023-04-27T21:32:35.348Z,18.1
2023-04-27T21:34:35.288Z,18.2
2023-04-27T21:36:38.650Z,18.2
2023-04-27T21:39:35.269Z,18.4
2023-04-27T21:40:40.296Z,18.5
2023-04-27T21:43:35.283Z,18.4
2023-04-27T21:45:35.348Z,18.4
2023-04-27T21:47:35.442Z,18.3
2023-04-27T21:49:35.468Z,18.4
2023-04-27T21:51:35.266Z,18.1
2023-04-27T21:53:35.293Z,18.2
2023-04-27T21:55:35.281Z,18.4
2023-04-27T21:57:35.426Z,18.4
2023-04-27T21:59:35.318Z,18.6
2023-04-27T22:01:35.316Z,18.7
2023-04-27T22:03:35.891Z,18.8
2023-04-27T22:05:35.300Z,18.9
2023-04-27T22:07:38.435Z,19.1
2023-04-27T22:09:35.343Z,19.2
2023-04-27T22:11:35.346Z,19.6
2023-04-27T22:13:35.308Z,19.4
2023-04-27T22:15:35.254Z,19.4
2023-04-27T22:17:35.272Z,19.3
2023-04-27T22:19:35.348Z,19.1
2023-04-27T22:21:35.344Z,19.0
2023-04-27T22:23:35.267Z,18.9
2023-04-27T22:25:35.252Z,19.1
2023-04-27T22:27:42.066Z,19.2
2023-04-27T22:29:35.291Z,19.5
2023-04-27T22:31:35.482Z,19.5
2023-04-27T22:33:36.915Z,19.6
2023-04-27T22:35:35.338Z,19.7
2023-04-27T22:37:35.306Z,19.7
2023-04-27T22:39:35.363Z,19.7
2023-04-27T22:41:35.261Z,19.8
2023-04-27T22:43:35.328Z,19.8
2023-04-27T22:45:36.741Z,19.9
2023-04-27T22:47:35.289Z,20.3
2023-04-27T22:49:35.368Z,20.1
2023-04-27T22:51:35.336Z,20.2
2023-04-27T22:53:35.330Z,20.3
2023-04-27T22:55:35.512Z,20.3
2023-04-27T22:57:35.337Z,20.2
2023-04-27T22:59:35.344Z,20.4
2023-04-27T23:01:35.490Z,20.2
2023-04-27T23:03:35.445Z,20.1
2023-04-27T23:05:35.334Z,19.8
2023-04-27T23:07:35.373Z,19.5
2023-04-27T23:09:38.280Z,19.6
2023-04-27T23:11:35.308Z,19.8
2023-04-27T23:13:35.278Z,19.6
2023-04-27T23:15:35.416Z,19.2
2023-04-27T23:17:35.328Z,19.4
2023-04-27T23:19:35.313Z,19.3
2023-04-27T23:21:35.308Z,19.1
2023-04-27T23:23:35.473Z,19.3
2023-04-27T23:25:35.344Z,19.5
2023-04-27T23:27:35.345Z,19.4
2023-04-27T23:29:35.341Z,19.1
2023-04-27T23:31:35.509Z,19.0
2023-04-27T23:33:35.505Z,18.9
2023-04-27T23:35:35.316Z,18.8
2023-04-27T23:37:35.412Z,18.9
2023-04-27T23:39:35.423Z,18.9
2023-04-27T23:41:35.503Z,19.0
2023-04-27T23:43:35.360Z,19.0
2023-04-27T23:45:35.311Z,19.0
2023-04-27T23:47:35.563Z,18.5
2023-04-27T23:49:35.328Z,18.6
2023-04-27T23:51:35.326Z,18.9
2023-04-27T23:53:35.267Z,18.5
2023-04-27T23:55:35.745Z,18.4
2023-04-27T23:57:35.360Z,18.5
2023-04-27T23:59:35.330Z,18.2
